sensor_id;sensor_type;location;lat;lon;timestamp;P1;durP1;ratioP1;P2;durP2;ratioP2
32697;SDS011;19087;51.062;3.754;2023-05-07T00:00:58;0.20;;;0.20;;
32697;SDS011;19087;51.062;3.754;2023-05-07T00:03:25;0.20;;;0.20;;
32697;SDS011;19087;51.062;3.754;2023-05-07T00:05:51;0.20;;;0.20;;
32697;SDS011;19087;51.062;3.754;2023-05-07T00:08:18;0.30;;;0.30;;
32697;SDS011;19087;51.062;3.754;2023-05-07T00:10:44;0.20;;;0.20;;
32697;SDS011;19087;51.062;3.754;2023-05-07T00:13:11;0.20;;;0.20;;
32697;SDS011;19087;51.062;3.754;2023-05-07T00:15:37;0.20;;;0.20;;
32697;SDS011;19087;51.062;3.754;2023-05-07T00:18:03;0.20;;;0.20;;
32697;SDS011;19087;51.062;3.754;2023-05-07T00:20:29;0.25;;;0.25;;
32697;SDS011;19087;51.062;3.754;2023-05-07T00:22:55;0.10;;;0.10;;
32697;SDS011;19087;51.062;3.754;2023-05-07T00:25:21;0.20;;;0.20;;
32697;SDS011;19087;51.062;3.754;2023-05-07T00:27:47;0.20;;;0.20;;
32697;SDS011;19087;51.062;3.754;2023-05-07T00:30:13;0.20;;;0.20;;
32697;SDS011;19087;51.062;3.754;2023-05-07T00:32:39;0.20;;;0.20;;
32697;SDS011;19087;51.062;3.754;2023-05-07T00:35:05;0.20;;;0.20;;
32697;SDS011;19087;51.062;3.754;2023-05-07T00:37:32;0.20;;;0.20;;
32697;SDS011;19087;51.062;3.754;2023-05-07T00:39:59;0.20;;;0.20;;
32697;SDS011;19087;51.062;3.754;2023-05-07T00:42:25;0.20;;;0.20;;
32697;SDS011;19087;51.062;3.754;2023-05-07T00:44:51;0.20;;;0.20;;
32697;SDS011;19087;51.062;3.754;2023-05-07T00:47:17;0.20;;;0.20;;
32697;SDS011;19087;51.062;3.754;2023-05-07T00:49:43;0.20;;;0.20;;
32697;SDS011;19087;51.062;3.754;2023-05-07T00:52:11;0.22;;;0.22;;
32697;SDS011;19087;51.062;3.754;2023-05-07T00:54:40;0.20;;;0.20;;
32697;SDS011;19087;51.062;3.754;2023-05-07T00:57:08;0.20;;;0.20;;
32697;SDS011;19087;51.062;3.754;2023-05-07T00:59:35;0.20;;;0.20;;
32697;SDS011;19087;51.062;3.754;2023-05-07T01:02:02;0.20;;;0.20;;
32697;SDS011;19087;51.062;3.754;2023-05-07T01:04:27;0.17;;;0.17;;
32697;SDS011;19087;51.062;3.754;2023-05-07T01:06:54;0.20;;;0.20;;
32697;SDS011;19087;51.062;3.754;2023-05-07T01:09:22;0.20;;;0.20;;
32697;SDS011;19087;51.062;3.754;2023-05-07T01:11:49;0.20;;;0.20;;
32697;SDS011;19087;51.062;3.754;2023-05-07T01:14:18;0.30;;;0.30;;
32697;SDS011;19087;51.062;3.754;2023-05-07T01:16:45;0.20;;;0.20;;
32697;SDS011;19087;51.062;3.754;2023-05-07T01:19:12;0.20;;;0.20;;
32697;SDS011;19087;51.062;3.754;2023-05-07T01:21:44;0.20;;;0.20;;
32697;SDS011;19087;51.062;3.754;2023-05-07T01:24:12;0.20;;;0.20;;
32697;SDS011;19087;51.062;3.754;2023-05-07T01:26:39;0.20;;;0.20;;
32697;SDS011;19087;51.062;3.754;2023-05-07T01:29:05;0.20;;;0.20;;
32697;SDS011;19087;51.062;3.754;2023-05-07T01:31:33;0.20;;;0.20;;
32697;SDS011;19087;51.062;3.754;2023-05-07T01:34:01;0.20;;;0.20;;
32697;SDS011;19087;51.062;3.754;2023-05-07T01:36:29;0.20;;;0.20;;
32697;SDS011;19087;51.062;3.754;2023-05-07T01:38:56;0.20;;;0.20;;
32697;SDS011;19087;51.062;3.754;2023-05-07T01:41:26;0.20;;;0.20;;
32697;SDS011;19087;51.062;3.754;2023-05-07T01:43:53;0.20;;;0.20;;
32697;SDS011;19087;51.062;3.754;2023-05-07T01:46:23;0.20;;;0.20;;
32697;SDS011;19087;51.062;3.754;2023-05-07T01:48:49;0.20;;;0.20;;
32697;SDS011;19087;51.062;3.754;2023-05-07T01:51:15;0.20;;;0.20;;
32697;SDS011;19087;51.062;3.754;2023-05-07T01:53:47;0.20;;;0.20;;
32697;SDS011;19087;51.062;3.754;2023-05-07T01:56:17;0.20;;;0.20;;
32697;SDS011;19087;51.062;3.754;2023-05-07T01:58:44;0.13;;;0.13;;
32697;SDS011;19087;51.062;3.754;2023-05-07T02:01:11;0.25;;;0.25;;
32697;SDS011;19087;51.062;3.754;2023-05-07T02:03:38;0.30;;;0.30;;
32697;SDS011;19087;51.062;3.754;2023-05-07T02:06:04;0.20;;;0.20;;
32697;SDS011;19087;51.062;3.754;2023-05-07T02:08:30;0.30;;;0.30;;
32697;SDS011;19087;51.062;3.754;2023-05-07T02:10:56;0.20;;;0.20;;
32697;SDS011;19087;51.062;3.754;2023-05-07T02:13:22;0.20;;;0.20;;
32697;SDS011;19087;51.062;3.754;2023-05-07T02:15:52;0.20;;;0.20;;
32697;SDS011;19087;51.062;3.754;2023-05-07T02:18:18;0.20;;;0.20;;
32697;SDS011;19087;51.062;3.754;2023-05-07T02:20:44;0.20;;;0.20;;
32697;SDS011;19087;51.062;3.754;2023-05-07T02:23:11;0.28;;;0.28;;
32697;SDS011;19087;51.062;3.754;2023-05-07T02:25:37;0.20;;;0.20;;
32697;SDS011;19087;51.062;3.754;2023-05-07T02:28:03;0.20;;;0.20;;
32697;SDS011;19087;51.062;3.754;2023-05-07T02:30:29;0.20;;;0.20;;
32697;SDS011;19087;51.062;3.754;2023-05-07T02:32:57;0.20;;;0.20;;
32697;SDS011;19087;51.062;3.754;2023-05-07T02:35:24;0.20;;;0.20;;
32697;SDS011;19087;51.062;3.754;2023-05-07T02:37:51;0.20;;;0.20;;
32697;SDS011;19087;51.062;3.754;2023-05-07T02:40:18;0.20;;;0.20;;
32697;SDS011;19087;51.062;3.754;2023-05-07T02:42:45;0.20;;;0.20;;
32697;SDS011;19087;51.062;3.754;2023-05-07T02:45:12;0.20;;;0.20;;
32697;SDS011;19087;51.062;3.754;2023-05-07T02:47:40;0.20;;;0.20;;
32697;SDS011;19087;51.062;3.754;2023-05-07T02:50:06;0.20;;;0.20;;
32697;SDS011;19087;51.062;3.754;2023-05-07T02:52:35;0.20;;;0.20;;
32697;SDS011;19087;51.062;3.754;2023-05-07T02:55:00;0.20;;;0.20;;
32697;SDS011;19087;51.062;3.754;2023-05-07T02:57:28;0.20;;;0.20;;
32697;SDS011;19087;51.062;3.754;2023-05-07T02:59:54;0.20;;;0.20;;
32697;SDS011;19087;51.062;3.754;2023-05-07T03:02:21;0.30;;;0.30;;
32697;SDS011;19087;51.062;3.754;2023-05-07T03:04:48;0.20;;;0.20;;
32697;SDS011;19087;51.062;3.754;2023-05-07T03:07:14;0.20;;;0.20;;
32697;SDS011;19087;51.062;3.754;2023-05-07T03:09:40;0.20;;;0.20;;
32697;SDS011;19087;51.062;3.754;2023-05-07T03:12:06;0.25;;;0.25;;
32697;SDS011;19087;51.062;3.754;2023-05-07T03:14:38;0.20;;;0.20;;
32697;SDS011;19087;51.062;3.754;2023-05-07T03:17:04;0.30;;;0.30;;
32697;SDS011;19087;51.062;3.754;2023-05-07T03:19:30;0.20;;;0.20;;
32697;SDS011;19087;51.062;3.754;2023-05-07T03:21:57;0.20;;;0.20;;
32697;SDS011;19087;51.062;3.754;2023-05-07T03:24:23;0.20;;;0.20;;
32697;SDS011;19087;51.062;3.754;2023-05-07T03:26:50;0.20;;;0.20;;
32697;SDS011;19087;51.062;3.754;2023-05-07T03:29:15;0.20;;;0.20;;
32697;SDS011;19087;51.062;3.754;2023-05-07T03:31:45;0.20;;;0.20;;
32697;SDS011;19087;51.062;3.754;2023-05-07T03:34:12;0.30;;;0.30;;
32697;SDS011;19087;51.062;3.754;2023-05-07T03:36:38;0.20;;;0.20;;
32697;SDS011;19087;51.062;3.754;2023-05-07T03:39:03;0.20;;;0.20;;
32697;SDS011;19087;51.062;3.754;2023-05-07T03:41:29;0.30;;;0.30;;
32697;SDS011;19087;51.062;3.754;2023-05-07T03:44:03;0.20;;;0.20;;
32697;SDS011;19087;51.062;3.754;2023-05-07T03:46:29;0.22;;;0.22;;
32697;SDS011;19087;51.062;3.754;2023-05-07T03:48:56;0.20;;;0.20;;
32697;SDS011;19087;51.062;3.754;2023-05-07T03:51:21;0.28;;;0.28;;
32697;SDS011;19087;51.062;3.754;2023-05-07T03:53:47;0.20;;;0.20;;
32697;SDS011;19087;51.062;3.754;2023-05-07T03:56:13;0.20;;;0.20;;
32697;SDS011;19087;51.062;3.754;2023-05-07T03:58:39;0.28;;;0.28;;
32697;SDS011;19087;51.062;3.754;2023-05-07T04:01:05;0.20;;;0.20;;
32697;SDS011;19087;51.062;3.754;2023-05-07T04:03:32;0.20;;;0.20;;
32697;SDS011;19087;51.062;3.754;2023-05-07T04:05:59;0.22;;;0.22;;
32697;SDS011;19087;51.062;3.754;2023-05-07T04:08:25;0.20;;;0.20;;
32697;SDS011;19087;51.062;3.754;2023-05-07T04:10:55;0.20;;;0.20;;
32697;SDS011;19087;51.062;3.754;2023-05-07T04:13:24;0.20;;;0.20;;
32697;SDS011;19087;51.062;3.754;2023-05-07T04:15:51;0.20;;;0.20;;
32697;SDS011;19087;51.062;3.754;2023-05-07T04:18:17;0.20;;;0.20;;
32697;SDS011;19087;51.062;3.754;2023-05-07T04:20:43;0.20;;;0.20;;
32697;SDS011;19087;51.062;3.754;2023-05-07T04:23:09;0.20;;;0.20;;
32697;SDS011;19087;51.062;3.754;2023-05-07T04:25:35;0.20;;;0.20;;
32697;SDS011;19087;51.062;3.754;2023-05-07T04:28:01;0.20;;;0.20;;
32697;SDS011;19087;51.062;3.754;2023-05-07T04:30:28;0.20;;;0.20;;
32697;SDS011;19087;51.062;3.754;2023-05-07T04:32:55;0.20;;;0.20;;
32697;SDS011;19087;51.062;3.754;2023-05-07T04:35:21;0.20;;;0.20;;
32697;SDS011;19087;51.062;3.754;2023-05-07T04:37:49;0.20;;;0.20;;
32697;SDS011;19087;51.062;3.754;2023-05-07T04:40:14;0.20;;;0.20;;
32697;SDS011;19087;51.062;3.754;2023-05-07T04:42:41;0.25;;;0.25;;
32697;SDS011;19087;51.062;3.754;2023-05-07T04:45:07;0.20;;;0.20;;
32697;SDS011;19087;51.062;3.754;2023-05-07T04:47:34;0.20;;;0.20;;
32697;SDS011;19087;51.062;3.754;2023-05-07T04:50:00;0.20;;;0.20;;
32697;SDS011;19087;51.062;3.754;2023-05-07T04:52:26;0.20;;;0.20;;
32697;SDS011;19087;51.062;3.754;2023-05-07T04:54:52;0.20;;;0.20;;
32697;SDS011;19087;51.062;3.754;2023-05-07T04:57:18;0.20;;;0.20;;
32697;SDS011;19087;51.062;3.754;2023-05-07T04:59:44;0.28;;;0.28;;
32697;SDS011;19087;51.062;3.754;2023-05-07T05:02:10;0.22;;;0.22;;
32697;SDS011;19087;51.062;3.754;2023-05-07T05:04:36;0.22;;;0.22;;
32697;SDS011;19087;51.062;3.754;2023-05-07T05:07:02;0.20;;;0.20;;
32697;SDS011;19087;51.062;3.754;2023-05-07T05:09:29;0.20;;;0.20;;
32697;SDS011;19087;51.062;3.754;2023-05-07T05:11:55;0.20;;;0.20;;
32697;SDS011;19087;51.062;3.754;2023-05-07T05:14:23;0.20;;;0.20;;
32697;SDS011;19087;51.062;3.754;2023-05-07T05:16:49;0.28;;;0.28;;
32697;SDS011;19087;51.062;3.754;2023-05-07T05:19:15;0.20;;;0.20;;
32697;SDS011;19087;51.062;3.754;2023-05-07T05:21:41;0.20;;;0.20;;
32697;SDS011;19087;51.062;3.754;2023-05-07T05:24:10;0.20;;;0.20;;
32697;SDS011;19087;51.062;3.754;2023-05-07T05:26:37;0.20;;;0.20;;
32697;SDS011;19087;51.062;3.754;2023-05-07T05:29:03;0.30;;;0.30;;
32697;SDS011;19087;51.062;3.754;2023-05-07T05:31:29;0.20;;;0.20;;
32697;SDS011;19087;51.062;3.754;2023-05-07T05:33:58;0.20;;;0.20;;
32697;SDS011;19087;51.062;3.754;2023-05-07T05:36:26;0.20;;;0.20;;
32697;SDS011;19087;51.062;3.754;2023-05-07T05:38:55;0.20;;;0.20;;
32697;SDS011;19087;51.062;3.754;2023-05-07T05:41:21;0.28;;;0.28;;
32697;SDS011;19087;51.062;3.754;2023-05-07T05:43:46;0.20;;;0.20;;
32697;SDS011;19087;51.062;3.754;2023-05-07T05:46:12;0.20;;;0.20;;
32697;SDS011;19087;51.062;3.754;2023-05-07T05:48:38;0.20;;;0.20;;
32697;SDS011;19087;51.062;3.754;2023-05-07T05:51:04;0.20;;;0.20;;
32697;SDS011;19087;51.062;3.754;2023-05-07T05:53:30;0.20;;;0.20;;
32697;SDS011;19087;51.062;3.754;2023-05-07T05:55:56;0.20;;;0.20;;
32697;SDS011;19087;51.062;3.754;2023-05-07T05:58:22;0.20;;;0.20;;
32697;SDS011;19087;51.062;3.754;2023-05-07T06:00:49;0.20;;;0.20;;
32697;SDS011;19087;51.062;3.754;2023-05-07T06:03:17;0.20;;;0.20;;
32697;SDS011;19087;51.062;3.754;2023-05-07T06:05:44;0.28;;;0.28;;
32697;SDS011;19087;51.062;3.754;2023-05-07T06:08:29;0.20;;;0.20;;
32697;SDS011;19087;51.062;3.754;2023-05-07T06:10:58;0.20;;;0.20;;
32697;SDS011;19087;51.062;3.754;2023-05-07T06:13:32;0.20;;;0.20;;
32697;SDS011;19087;51.062;3.754;2023-05-07T06:15:59;0.20;;;0.20;;
32697;SDS011;19087;51.062;3.754;2023-05-07T06:18:24;0.20;;;0.20;;
32697;SDS011;19087;51.062;3.754;2023-05-07T06:20:51;0.15;;;0.15;;
32697;SDS011;19087;51.062;3.754;2023-05-07T06:23:18;0.20;;;0.20;;
32697;SDS011;19087;51.062;3.754;2023-05-07T06:25:49;0.20;;;0.20;;
32697;SDS011;19087;51.062;3.754;2023-05-07T06:28:17;0.20;;;0.20;;
32697;SDS011;19087;51.062;3.754;2023-05-07T06:30:42;0.20;;;0.20;;
32697;SDS011;19087;51.062;3.754;2023-05-07T06:33:09;0.20;;;0.20;;
32697;SDS011;19087;51.062;3.754;2023-05-07T06:35:35;0.30;;;0.30;;
32697;SDS011;19087;51.062;3.754;2023-05-07T06:38:00;0.20;;;0.20;;
32697;SDS011;19087;51.062;3.754;2023-05-07T06:40:26;0.20;;;0.20;;
32697;SDS011;19087;51.062;3.754;2023-05-07T06:42:52;0.20;;;0.20;;
32697;SDS011;19087;51.062;3.754;2023-05-07T06:45:19;0.20;;;0.20;;
32697;SDS011;19087;51.062;3.754;2023-05-07T06:47:46;0.25;;;0.25;;
32697;SDS011;19087;51.062;3.754;2023-05-07T06:50:11;0.20;;;0.20;;
32697;SDS011;19087;51.062;3.754;2023-05-07T06:52:37;0.20;;;0.20;;
32697;SDS011;19087;51.062;3.754;2023-05-07T06:55:03;0.17;;;0.17;;
32697;SDS011;19087;51.062;3.754;2023-05-07T06:57:30;0.20;;;0.20;;
32697;SDS011;19087;51.062;3.754;2023-05-07T06:59:55;0.20;;;0.20;;
32697;SDS011;19087;51.062;3.754;2023-05-07T07:02:21;0.20;;;0.20;;
32697;SDS011;19087;51.062;3.754;2023-05-07T07:04:47;0.20;;;0.20;;
32697;SDS011;19087;51.062;3.754;2023-05-07T07:07:13;0.20;;;0.20;;
32697;SDS011;19087;51.062;3.754;2023-05-07T07:09:38;0.20;;;0.20;;
32697;SDS011;19087;51.062;3.754;2023-05-07T07:12:06;0.20;;;0.20;;
32697;SDS011;19087;51.062;3.754;2023-05-07T07:14:34;0.20;;;0.20;;
32697;SDS011;19087;51.062;3.754;2023-05-07T07:17:01;0.20;;;0.20;;
32697;SDS011;19087;51.062;3.754;2023-05-07T07:19:26;0.28;;;0.28;;
32697;SDS011;19087;51.062;3.754;2023-05-07T07:21:52;0.20;;;0.20;;
32697;SDS011;19087;51.062;3.754;2023-05-07T07:24:19;0.20;;;0.20;;
32697;SDS011;19087;51.062;3.754;2023-05-07T07:26:48;0.20;;;0.20;;
32697;SDS011;19087;51.062;3.754;2023-05-07T07:29:13;0.20;;;0.20;;
32697;SDS011;19087;51.062;3.754;2023-05-07T07:31:39;0.20;;;0.20;;
32697;SDS011;19087;51.062;3.754;2023-05-07T07:34:05;0.20;;;0.20;;
32697;SDS011;19087;51.062;3.754;2023-05-07T07:36:31;0.20;;;0.20;;
32697;SDS011;19087;51.062;3.754;2023-05-07T07:38:56;0.20;;;0.20;;
32697;SDS011;19087;51.062;3.754;2023-05-07T07:41:22;0.20;;;0.20;;
32697;SDS011;19087;51.062;3.754;2023-05-07T07:43:49;0.20;;;0.20;;
32697;SDS011;19087;51.062;3.754;2023-05-07T07:46:14;0.25;;;0.25;;
32697;SDS011;19087;51.062;3.754;2023-05-07T07:48:40;0.28;;;0.28;;
32697;SDS011;19087;51.062;3.754;2023-05-07T07:51:06;0.20;;;0.20;;
32697;SDS011;19087;51.062;3.754;2023-05-07T07:53:34;0.20;;;0.20;;
32697;SDS011;19087;51.062;3.754;2023-05-07T07:56:00;0.20;;;0.20;;
32697;SDS011;19087;51.062;3.754;2023-05-07T07:58:26;0.20;;;0.20;;
32697;SDS011;19087;51.062;3.754;2023-05-07T08:00:52;0.20;;;0.20;;
32697;SDS011;19087;51.062;3.754;2023-05-07T08:03:19;0.20;;;0.20;;
32697;SDS011;19087;51.062;3.754;2023-05-07T08:05:51;0.20;;;0.20;;
32697;SDS011;19087;51.062;3.754;2023-05-07T08:08:18;0.20;;;0.20;;
32697;SDS011;19087;51.062;3.754;2023-05-07T08:10:45;0.20;;;0.20;;
32697;SDS011;19087;51.062;3.754;2023-05-07T08:13:15;0.20;;;0.20;;
32697;SDS011;19087;51.062;3.754;2023-05-07T08:15:42;0.20;;;0.20;;
32697;SDS011;19087;51.062;3.754;2023-05-07T08:18:08;0.20;;;0.20;;
32697;SDS011;19087;51.062;3.754;2023-05-07T08:20:37;0.20;;;0.20;;
32697;SDS011;19087;51.062;3.754;2023-05-07T08:23:05;0.20;;;0.20;;
32697;SDS011;19087;51.062;3.754;2023-05-07T08:25:34;0.20;;;0.20;;
32697;SDS011;19087;51.062;3.754;2023-05-07T08:28:00;0.25;;;0.25;;
32697;SDS011;19087;51.062;3.754;2023-05-07T08:30:26;0.20;;;0.20;;
32697;SDS011;19087;51.062;3.754;2023-05-07T08:32:52;0.20;;;0.20;;
32697;SDS011;19087;51.062;3.754;2023-05-07T08:35:18;0.20;;;0.20;;
32697;SDS011;19087;51.062;3.754;2023-05-07T08:37:44;0.20;;;0.20;;
32697;SDS011;19087;51.062;3.754;2023-05-07T08:40:15;0.20;;;0.20;;
32697;SDS011;19087;51.062;3.754;2023-05-07T08:42:43;0.20;;;0.20;;
32697;SDS011;19087;51.062;3.754;2023-05-07T08:45:13;0.20;;;0.20;;
32697;SDS011;19087;51.062;3.754;2023-05-07T08:47:43;0.20;;;0.20;;
32697;SDS011;19087;51.062;3.754;2023-05-07T08:50:11;0.20;;;0.20;;
32697;SDS011;19087;51.062;3.754;2023-05-07T08:52:38;0.20;;;0.20;;
32697;SDS011;19087;51.062;3.754;2023-05-07T08:55:05;0.20;;;0.20;;
32697;SDS011;19087;51.062;3.754;2023-05-07T08:57:33;0.20;;;0.20;;
32697;SDS011;19087;51.062;3.754;2023-05-07T08:59:59;0.20;;;0.20;;
32697;SDS011;19087;51.062;3.754;2023-05-07T09:02:26;0.20;;;0.20;;
32697;SDS011;19087;51.062;3.754;2023-05-07T09:04:54;0.20;;;0.20;;
32697;SDS011;19087;51.062;3.754;2023-05-07T09:07:25;0.20;;;0.20;;
32697;SDS011;19087;51.062;3.754;2023-05-07T09:09:53;0.20;;;0.20;;
32697;SDS011;19087;51.062;3.754;2023-05-07T09:12:23;0.20;;;0.20;;
32697;SDS011;19087;51.062;3.754;2023-05-07T09:14:49;0.20;;;0.20;;
32697;SDS011;19087;51.062;3.754;2023-05-07T09:17:16;0.13;;;0.13;;
32697;SDS011;19087;51.062;3.754;2023-05-07T09:19:46;0.20;;;0.20;;
32697;SDS011;19087;51.062;3.754;2023-05-07T09:22:12;0.20;;;0.20;;
32697;SDS011;19087;51.062;3.754;2023-05-07T09:24:39;0.20;;;0.20;;
32697;SDS011;19087;51.062;3.754;2023-05-07T09:27:05;0.20;;;0.20;;
32697;SDS011;19087;51.062;3.754;2023-05-07T09:29:33;0.20;;;0.20;;
32697;SDS011;19087;51.062;3.754;2023-05-07T09:32:03;0.20;;;0.20;;
32697;SDS011;19087;51.062;3.754;2023-05-07T09:34:30;0.20;;;0.20;;
32697;SDS011;19087;51.062;3.754;2023-05-07T09:36:58;0.20;;;0.20;;
32697;SDS011;19087;51.062;3.754;2023-05-07T09:39:39;0.20;;;0.20;;
32697;SDS011;19087;51.062;3.754;2023-05-07T09:42:09;0.20;;;0.20;;
32697;SDS011;19087;51.062;3.754;2023-05-07T09:44:43;0.20;;;0.20;;
32697;SDS011;19087;51.062;3.754;2023-05-07T09:47:10;0.20;;;0.20;;
32697;SDS011;19087;51.062;3.754;2023-05-07T09:49:40;0.20;;;0.20;;
32697;SDS011;19087;51.062;3.754;2023-05-07T09:52:08;0.20;;;0.20;;
32697;SDS011;19087;51.062;3.754;2023-05-07T09:54:37;0.17;;;0.17;;
32697;SDS011;19087;51.062;3.754;2023-05-07T09:57:07;0.10;;;0.10;;
32697;SDS011;19087;51.062;3.754;2023-05-07T09:59:37;0.10;;;0.10;;
32697;SDS011;19087;51.062;3.754;2023-05-07T10:02:05;0.20;;;0.20;;
32697;SDS011;19087;51.062;3.754;2023-05-07T10:04:32;0.10;;;0.10;;
32697;SDS011;19087;51.062;3.754;2023-05-07T10:06:59;0.10;;;0.10;;
32697;SDS011;19087;51.062;3.754;2023-05-07T10:09:26;0.10;;;0.10;;
32697;SDS011;19087;51.062;3.754;2023-05-07T10:11:52;0.10;;;0.10;;
32697;SDS011;19087;51.062;3.754;2023-05-07T10:14:20;0.10;;;0.10;;
32697;SDS011;19087;51.062;3.754;2023-05-07T10:16:47;0.10;;;0.10;;
32697;SDS011;19087;51.062;3.754;2023-05-07T10:19:13;0.20;;;0.20;;
32697;SDS011;19087;51.062;3.754;2023-05-07T10:21:43;0.13;;;0.13;;
32697;SDS011;19087;51.062;3.754;2023-05-07T10:24:19;0.10;;;0.10;;
32697;SDS011;19087;51.062;3.754;2023-05-07T10:26:51;0.10;;;0.10;;
32697;SDS011;19087;51.062;3.754;2023-05-07T10:29:21;0.10;;;0.10;;
32697;SDS011;19087;51.062;3.754;2023-05-07T10:35:33;0.20;;;0.20;;
32697;SDS011;19087;51.062;3.754;2023-05-07T10:40:32;0.10;;;0.10;;
32697;SDS011;19087;51.062;3.754;2023-05-07T10:42:59;0.10;;;0.10;;
32697;SDS011;19087;51.062;3.754;2023-05-07T10:45:27;0.10;;;0.10;;
32697;SDS011;19087;51.062;3.754;2023-05-07T10:48:27;0.17;;;0.17;;
32697;SDS011;19087;51.062;3.754;2023-05-07T10:50:46;0.10;;;0.10;;
32697;SDS011;19087;51.062;3.754;2023-05-07T10:56:50;0.10;;;0.10;;
32697;SDS011;19087;51.062;3.754;2023-05-07T10:58:52;0.10;;;0.10;;
32697;SDS011;19087;51.062;3.754;2023-05-07T11:01:48;0.10;;;0.10;;
32697;SDS011;19087;51.062;3.754;2023-05-07T11:04:19;0.10;;;0.10;;
32697;SDS011;19087;51.062;3.754;2023-05-07T11:09:56;0.10;;;0.10;;
32697;SDS011;19087;51.062;3.754;2023-05-07T11:15:05;0.10;;;0.10;;
32697;SDS011;19087;51.062;3.754;2023-05-07T11:17:31;0.10;;;0.10;;
32697;SDS011;19087;51.062;3.754;2023-05-07T11:20:07;0.10;;;0.10;;
32697;SDS011;19087;51.062;3.754;2023-05-07T11:22:50;0.10;;;0.10;;
32697;SDS011;19087;51.062;3.754;2023-05-07T11:25:18;0.10;;;0.10;;
32697;SDS011;19087;51.062;3.754;2023-05-07T11:27:44;0.10;;;0.10;;
32697;SDS011;19087;51.062;3.754;2023-05-07T11:30:11;0.10;;;0.10;;
32697;SDS011;19087;51.062;3.754;2023-05-07T11:32:44;0.10;;;0.10;;
32697;SDS011;19087;51.062;3.754;2023-05-07T11:35:13;0.10;;;0.10;;
32697;SDS011;19087;51.062;3.754;2023-05-07T11:37:41;0.10;;;0.10;;
32697;SDS011;19087;51.062;3.754;2023-05-07T11:40:09;0.15;;;0.15;;
32697;SDS011;19087;51.062;3.754;2023-05-07T11:42:40;0.10;;;0.10;;
32697;SDS011;19087;51.062;3.754;2023-05-07T11:45:09;0.10;;;0.10;;
32697;SDS011;19087;51.062;3.754;2023-05-07T11:47:35;0.10;;;0.10;;
32697;SDS011;19087;51.062;3.754;2023-05-07T11:50:05;0.10;;;0.10;;
32697;SDS011;19087;51.062;3.754;2023-05-07T11:52:32;0.00;;;0.00;;
32697;SDS011;19087;51.062;3.754;2023-05-07T11:54:59;0.10;;;0.10;;
32697;SDS011;19087;51.062;3.754;2023-05-07T11:57:26;0.10;;;0.10;;
32697;SDS011;19087;51.062;3.754;2023-05-07T11:59:53;0.10;;;0.10;;
32697;SDS011;19087;51.062;3.754;2023-05-07T12:02:23;0.10;;;0.10;;
32697;SDS011;19087;51.062;3.754;2023-05-07T12:04:53;0.10;;;0.10;;
32697;SDS011;19087;51.062;3.754;2023-05-07T12:07:22;0.10;;;0.10;;
32697;SDS011;19087;51.062;3.754;2023-05-07T12:09:49;0.10;;;0.10;;
32697;SDS011;19087;51.062;3.754;2023-05-07T12:12:15;0.10;;;0.10;;
32697;SDS011;19087;51.062;3.754;2023-05-07T12:14:42;0.10;;;0.10;;
32697;SDS011;19087;51.062;3.754;2023-05-07T12:17:10;0.10;;;0.10;;
32697;SDS011;19087;51.062;3.754;2023-05-07T12:19:39;0.10;;;0.10;;
32697;SDS011;19087;51.062;3.754;2023-05-07T12:22:07;0.10;;;0.10;;
32697;SDS011;19087;51.062;3.754;2023-05-07T12:24:46;0.10;;;0.10;;
32697;SDS011;19087;51.062;3.754;2023-05-07T12:27:16;0.10;;;0.10;;
32697;SDS011;19087;51.062;3.754;2023-05-07T12:29:50;0.10;;;0.10;;
32697;SDS011;19087;51.062;3.754;2023-05-07T12:32:17;0.10;;;0.10;;
32697;SDS011;19087;51.062;3.754;2023-05-07T12:34:49;0.10;;;0.10;;
32697;SDS011;19087;51.062;3.754;2023-05-07T12:37:22;0.10;;;0.10;;
32697;SDS011;19087;51.062;3.754;2023-05-07T12:39:59;0.10;;;0.10;;
32697;SDS011;19087;51.062;3.754;2023-05-07T12:42:39;0.10;;;0.10;;
32697;SDS011;19087;51.062;3.754;2023-05-07T12:45:10;0.10;;;0.10;;
32697;SDS011;19087;51.062;3.754;2023-05-07T12:47:43;0.10;;;0.10;;
32697;SDS011;19087;51.062;3.754;2023-05-07T12:50:15;0.10;;;0.10;;
32697;SDS011;19087;51.062;3.754;2023-05-07T12:52:45;0.10;;;0.10;;
32697;SDS011;19087;51.062;3.754;2023-05-07T12:55:16;0.10;;;0.10;;
32697;SDS011;19087;51.062;3.754;2023-05-07T12:57:52;0.10;;;0.10;;
32697;SDS011;19087;51.062;3.754;2023-05-07T13:03:04;0.10;;;0.10;;
32697;SDS011;19087;51.062;3.754;2023-05-07T13:05:31;0.10;;;0.10;;
32697;SDS011;19087;51.062;3.754;2023-05-07T13:08:00;0.10;;;0.10;;
32697;SDS011;19087;51.062;3.754;2023-05-07T13:10:26;0.10;;;0.10;;
32697;SDS011;19087;51.062;3.754;2023-05-07T13:12:52;0.10;;;0.10;;
32697;SDS011;19087;51.062;3.754;2023-05-07T13:15:18;0.10;;;0.10;;
32697;SDS011;19087;51.062;3.754;2023-05-07T13:17:46;0.10;;;0.10;;
32697;SDS011;19087;51.062;3.754;2023-05-07T13:20:14;0.08;;;0.08;;
32697;SDS011;19087;51.062;3.754;2023-05-07T13:22:41;0.10;;;0.10;;
32697;SDS011;19087;51.062;3.754;2023-05-07T13:25:06;0.10;;;0.10;;
32697;SDS011;19087;51.062;3.754;2023-05-07T13:27:34;0.10;;;0.10;;
32697;SDS011;19087;51.062;3.754;2023-05-07T13:30:05;0.10;;;0.10;;
32697;SDS011;19087;51.062;3.754;2023-05-07T13:32:32;0.10;;;0.10;;
32697;SDS011;19087;51.062;3.754;2023-05-07T13:34:59;0.10;;;0.10;;
32697;SDS011;19087;51.062;3.754;2023-05-07T13:37:26;0.10;;;0.10;;
32697;SDS011;19087;51.062;3.754;2023-05-07T13:39:52;0.10;;;0.10;;
32697;SDS011;19087;51.062;3.754;2023-05-07T13:42:18;0.10;;;0.10;;
32697;SDS011;19087;51.062;3.754;2023-05-07T13:44:46;0.10;;;0.10;;
32697;SDS011;19087;51.062;3.754;2023-05-07T13:47:19;0.10;;;0.10;;
32697;SDS011;19087;51.062;3.754;2023-05-07T13:49:46;0.10;;;0.10;;
32697;SDS011;19087;51.062;3.754;2023-05-07T13:52:14;0.10;;;0.10;;
32697;SDS011;19087;51.062;3.754;2023-05-07T13:54:42;0.10;;;0.10;;
32697;SDS011;19087;51.062;3.754;2023-05-07T13:57:09;0.10;;;0.10;;
32697;SDS011;19087;51.062;3.754;2023-05-07T13:59:37;0.10;;;0.10;;
32697;SDS011;19087;51.062;3.754;2023-05-07T14:02:09;0.13;;;0.13;;
32697;SDS011;19087;51.062;3.754;2023-05-07T14:04:37;0.10;;;0.10;;
32697;SDS011;19087;51.062;3.754;2023-05-07T14:07:03;0.10;;;0.10;;
32697;SDS011;19087;51.062;3.754;2023-05-07T14:09:29;0.10;;;0.10;;
32697;SDS011;19087;51.062;3.754;2023-05-07T14:11:55;0.10;;;0.10;;
32697;SDS011;19087;51.062;3.754;2023-05-07T14:14:21;0.10;;;0.10;;
32697;SDS011;19087;51.062;3.754;2023-05-07T14:16:47;0.10;;;0.10;;
32697;SDS011;19087;51.062;3.754;2023-05-07T14:19:13;0.10;;;0.10;;
32697;SDS011;19087;51.062;3.754;2023-05-07T14:21:38;0.10;;;0.10;;
32697;SDS011;19087;51.062;3.754;2023-05-07T14:24:06;0.10;;;0.10;;
32697;SDS011;19087;51.062;3.754;2023-05-07T14:26:33;0.10;;;0.10;;
32697;SDS011;19087;51.062;3.754;2023-05-07T14:28:59;0.20;;;0.20;;
32697;SDS011;19087;51.062;3.754;2023-05-07T14:31:26;0.10;;;0.10;;
32697;SDS011;19087;51.062;3.754;2023-05-07T14:33:53;0.10;;;0.10;;
32697;SDS011;19087;51.062;3.754;2023-05-07T14:36:19;0.10;;;0.10;;
32697;SDS011;19087;51.062;3.754;2023-05-07T14:38:46;0.10;;;0.10;;
32697;SDS011;19087;51.062;3.754;2023-05-07T14:41:13;0.10;;;0.10;;
32697;SDS011;19087;51.062;3.754;2023-05-07T14:43:41;0.10;;;0.10;;
32697;SDS011;19087;51.062;3.754;2023-05-07T14:46:07;0.10;;;0.10;;
32697;SDS011;19087;51.062;3.754;2023-05-07T14:48:34;0.20;;;0.20;;
32697;SDS011;19087;51.062;3.754;2023-05-07T14:51:00;0.20;;;0.20;;
32697;SDS011;19087;51.062;3.754;2023-05-07T14:53:28;0.20;;;0.20;;
32697;SDS011;19087;51.062;3.754;2023-05-07T14:55:54;0.10;;;0.10;;
32697;SDS011;19087;51.062;3.754;2023-05-07T14:58:20;0.20;;;0.20;;
32697;SDS011;19087;51.062;3.754;2023-05-07T15:00:46;0.20;;;0.20;;
32697;SDS011;19087;51.062;3.754;2023-05-07T15:03:12;0.10;;;0.10;;
32697;SDS011;19087;51.062;3.754;2023-05-07T15:05:39;0.10;;;0.10;;
32697;SDS011;19087;51.062;3.754;2023-05-07T15:08:06;0.13;;;0.13;;